• Join FlightAware (Why Join?)
  • Login
  • US Flag 
07:20AM EST


 

Airport Tracker/Info


-or-


 

Live Flight TrackerFlight Track Log ✈ FLG3409 ✈ 26-Apr-2014 ✈ KSYR - KMSP

Flight Track Log - Related Links

Times and Time Zones

All times are in EDT time to prevent confusion due to time zone crossing. See the FLG3409 flight status page for this flight to view local times or setup timezone preferences in your user account.

Time Position Orientation Groundspeed Altitude Reporting Facility
EDT Latitude Longitude Course Direction KTS MPH feet Rate Location/Type
06:40AM 43.1081 -76.1306 289° West 144 166 1,500  Level Boston Center
06:41AM 43.1208 -76.1811 280° West 169 194 3,700 2,113 Climbing Boston Center
06:42AM 43.1256 -76.1933 298° West 162 186 4,000 1,636 Climbing Boston Center
06:43AM 43.1558 -76.2675 299° West 199 229 5,800 2,164 Climbing Boston Center
06:44AM 43.1850 -76.3519 295° West 237 273 8,400 2,508 Climbing Boston Center
06:45AM 43.2019 -76.4483 284° West 254 292 10,900 1,967 Climbing Boston Center
06:46AM 43.2203 -76.5617 283° West 292 336 12,400 1,869 Climbing Boston Center
06:47AM 43.2406 -76.6831 283° West 320 368 14,700 2,164 Climbing Boston Center
06:48AM 43.2611 -76.8075 283° West 331 381 16,800 2,167 Climbing Boston Center
06:49AM 43.2775 -76.9114 282° West 340 391 18,600 2,037 Climbing Cleveland Center
06:50AM 43.2986 -77.0467 282° West 358 412 20,500 1,756 Climbing Cleveland Center
06:51AM 43.3119 -77.1864 278° West 367 422 22,200 1,820 Climbing Cleveland Center
06:52AM 43.3156 -77.3589 272° West 376 433 24,200 1,721 Climbing Cleveland Center
06:53AM 43.3158 -77.5017 270° West 377 434 25,700 1,377 Climbing Cleveland Center
06:54AM 43.3175 -77.6497 271° West 383 441 27,000 1,279 Climbing Cleveland Center
06:55AM 43.3192 -77.7994 271° West 390 449 28,300 1,131 Climbing Cleveland Center
06:56AM 43.3211 -77.9533 271° West 397 457 29,300 1,024 Climbing Cleveland Center
06:57AM 43.3219 -78.1081 270° West 406 467 30,400 1,171 Climbing Cleveland Center
06:58AM 43.3214 -78.2661 270° West 415 478 31,700 1,180 Climbing Cleveland Center
06:59AM 43.3222 -78.4169 270° West 402 463 32,800 1,082 Climbing Cleveland Center
07:00AM 43.3244 -78.5981 271° West 397 457 33,900 984 Climbing Cleveland Center
07:01AM 43.3247 -78.7508 270° West 398 458 34,800 934 Climbing Cleveland Center
07:02AM 43.3219 -78.9047 269° West 404 465 35,800 590 Climbing Cleveland Center
07:03AM 43.3222 -79.0544 270° West 399 459 36,000 98 Climbing Cleveland Center
07:04AM 43.3219 -79.2119 270° West 410 472 36,000  Level Cleveland Center
07:05AM 43.3211 -79.3694 270° West 412 474 36,000  Level Cleveland Center
07:06AM 43.3203 -79.5272 270° West 414 476 36,000  Level Cleveland Center
07:07AM 43.3194 -79.6869 270° West 415 478 36,000  Level Cleveland Center
07:08AM 43.3172 -79.8444 269° West 415 478 36,000  Level Cleveland Center
07:09AM 43.3158 -80.0042 269° West 420 483 36,000  Level Cleveland Center
07:10AM 43.3139 -80.1919 269° West 415 478 36,000  Level Cleveland Center
07:11AM 43.3122 -80.3517 269° West 414 476 36,000  Level Cleveland Center
07:12AM 43.3106 -80.5097 269° West 413 475 36,000  Level Cleveland Center
07:13AM 43.3078 -80.6714 269° West 417 480 36,000  Level Cleveland Center
07:14AM 43.3047 -80.8322 269° West 417 480 36,000  Level Cleveland Center
07:15AM 43.3022 -80.9942 269° West 420 483 36,000  Level Cleveland Center
07:16AM 43.2992 -81.1578 269° West 422 486 36,000  Level Cleveland Center
07:17AM 43.2958 -81.3178 268° West 422 486 36,000  Level Cleveland Center
07:18AM 43.2919 -81.4781 268° West 422 486 36,000  Level Cleveland Center
07:19AM 43.2881 -81.6392 268° West 424 488 36,000  Level Cleveland Center
07:20AM 43.2833 -81.8167 268° West 420 483 36,000  Level Toronto Center
07:21AM 43.2667 -81.9667 261° West 420 483 36,000  Level Toronto Center
07:22AM 43.2500 -82.1333 262° West 420 483 36,000  Level Toronto Center
07:23AM 43.2500 -82.2833 270° West 420 483 36,000  Level Toronto Center
07:24AM 43.2500 -82.4500 270° West 410 472 36,000  Level Toronto Center
07:25AM 43.2500 -82.6167 270° West 420 483 36,000  Level Toronto Center
07:26AM 43.2728 -82.7789 281° West 414 476 36,000  Level Cleveland Center
07:27AM 43.3122 -82.9289 290° West 421 484 36,000  Level Cleveland Center
07:28AM 43.3517 -83.0792 290° West 419 482 36,000  Level Cleveland Center
07:29AM 43.3911 -83.2314 290° West 421 484 36,000  Level Cleveland Center
07:30AM 43.4308 -83.3825 290° West 422 486 36,000  Level Cleveland Center
07:31AM 43.4783 -83.5675 290° West 426 490 36,000  Level Cleveland Center
07:32AM 43.5178 -83.7222 289° West 428 493 36,000  Level Cleveland Center
07:33AM 43.5567 -83.8744 289° West 428 493 36,000  Level Cleveland Center
07:34AM 43.5969 -84.0344 289° West 427 491 36,000  Level Cleveland Center
07:35AM 43.6353 -84.1864 289° West 426 490 36,000  Level Cleveland Center
07:36AM 43.6733 -84.3378 289° West 423 487 36,000  Level Cleveland Center
07:37AM 43.7117 -84.4889 289° West 422 486 36,000  Level Cleveland Center
07:39AM 43.7481 -84.6406 288° West 420 483 36,000  Level Cleveland Center
07:40AM 43.7853 -84.7922 289° West 418 481 36,000  Level Cleveland Center
07:41AM 43.8222 -84.9417 289° West 418 481 36,000  Level Cleveland Center
07:42AM 43.8656 -85.1222 288° West 417 480 36,000  Level Cleveland Center
07:43AM 43.9022 -85.2744 289° West 416 479 36,000  Level Cleveland Center
07:43AM 43.9000 -85.3500 268° West 430 495 36,000  Level Toronto Center
07:44AM 43.9447 -85.4553 301° West 416 479 36,000  Level Minneapolis Center
07:45AM 43.9806 -85.6075 288° West 416 479 36,000  Level Minneapolis Center
07:46AM 44.0164 -85.7575 288° West 416 479 36,000  Level Minneapolis Center
07:47AM 44.0575 -85.9350 288° West 407 468 36,000  Level Minneapolis Center
07:48AM 44.0908 -86.0797 288° West 400 460 36,000 148 Level Minneapolis Center
07:49AM 44.1233 -86.2189 288° West 400 460 36,300 595 Climbing Minneapolis Center
07:50AM 44.1567 -86.3667 288° West 401 461 37,200 793 Climbing Minneapolis Center
07:51AM 44.1897 -86.5128 288° West 400 460 37,900 393 Climbing Minneapolis Center
07:52AM 44.2222 -86.6581 287° West 395 455 38,000 50 Climbing Minneapolis Center
07:53AM 44.2564 -86.8103 287° West 405 466 38,000  Level Minneapolis Center
07:54AM 44.2897 -86.9625 287° West 408 470 38,000  Level Minneapolis Center
07:55AM 44.3225 -87.1069 288° West 396 456 38,000  Level Minneapolis Center
07:56AM 44.3553 -87.2583 287° West 391 450 38,000  Level Minneapolis Center
07:57AM 44.3853 -87.3994 287° West 386 444 38,000  Level Minneapolis Center
07:58AM 44.4167 -87.5439 287° West 386 444 38,000  Level Minneapolis Center
07:59AM 44.4489 -87.6897 287° West 388 447 38,000  Level Minneapolis Center
08:00AM 44.4781 -87.8297 286° West 391 450 38,000  Level Minneapolis Center
08:01AM 44.5089 -87.9756 287° West 385 443 38,000  Level Minneapolis Center
08:02AM 44.5683 -88.0936 305° West 375 432 38,000  Level Minneapolis Center
08:03AM 44.6369 -88.2081 310° West 379 436 38,000  Level Minneapolis Center
08:04AM 44.7161 -88.3447 309° West 379 436 38,000  Level Minneapolis Center
08:05AM 44.7858 -88.4511 313° West 376 433 38,000  Level Minneapolis Center
08:06AM 44.8550 -88.5614 312° West 373 429 38,000  Level Minneapolis Center
08:07AM 44.9047 -88.6925 298° West 387 445 38,000  Level Minneapolis Center
08:08AM 44.9092 -88.8386 273° West 380 437 38,000 -148 Level Minneapolis Center
08:09AM 44.9097 -88.9869 270° West 380 437 37,700 -639 Descending Minneapolis Center
08:10AM 44.9103 -89.1361 270° West 380 437 36,700 -984 Descending Minneapolis Center
08:11AM 44.9108 -89.2797 270° West 377 434 35,700 -984 Descending Minneapolis Center
08:12AM 44.9111 -89.4158 270° West 361 415 34,700 -992 Descending Minneapolis Center
08:13AM 44.9114 -89.5522 270° West 355 409 33,700 -992 Descending Minneapolis Center
08:14AM 44.9114 -89.6839 270° West 345 397 32,700 -836 Descending Minneapolis Center
08:15AM 44.9164 -89.8117 273° West 335 386 32,000 -344 Descending Minneapolis Center
08:16AM 44.9256 -89.9508 275° West 347 399 32,000  Level Minneapolis Center
08:17AM 44.9356 -90.1211 275° West 357 411 32,000  Level Minneapolis Center
08:18AM 44.9450 -90.2608 276° West 357 411 32,000  Level Minneapolis Center
08:19AM 44.9531 -90.4022 275° West 358 412 32,000 -148 Level Minneapolis Center
08:20AM 44.9619 -90.5456 275° West 362 417 31,700 -885 Descending Minneapolis Center
08:21AM 44.9692 -90.6878 274° West 362 417 30,200 -1,574 Descending Minneapolis Center
08:22AM 44.9775 -90.8336 275° West 372 428 28,500 -1,721 Descending Minneapolis Center
08:23AM 44.9847 -90.9817 274° West 371 427 26,700 -1,721 Descending Minneapolis Center
08:24AM 44.9919 -91.1253 274° West 371 427 25,000 -1,672 Descending Minneapolis Center
08:25AM 44.9983 -91.2669 274° West 370 426 23,300 -1,672 Descending Minneapolis Center
08:26AM 45.0069 -91.4061 275° West 362 417 21,600 -1,672 Descending Minneapolis Center
08:27AM 45.0136 -91.5447 274° West 359 413 19,900 -1,672 Descending Minneapolis Center
08:29AM 45.0217 -91.6847 275° West 359 413 18,200 -1,623 Descending Minneapolis Center
08:30AM 45.0286 -91.8233 274° West 359 413 16,600 -1,623 Descending Minneapolis Center
08:31AM 45.0344 -91.9558 274° West 346 398 14,900 -1,820 Descending Minneapolis Center
08:32AM 45.0408 -92.1150 273° West 343 395 12,900 -1,721 Descending Minneapolis Center
08:33AM 45.0475 -92.2489 274° West 342 394 11,400 -934 Descending Minneapolis Center
08:34AM 45.0333 -92.3814 261° West 344 396 11,000 -195 Descending Minneapolis Center
08:35AM 45.0133 -92.5147 258° West 345 397 11,000  Level Minneapolis Center
08:36AM 44.9922 -92.6478 257° West 347 399 11,000  Level Minneapolis Center
08:37AM 44.9711 -92.7789 257° West 347 399 11,000 -246 Level Minneapolis Center
08:38AM 44.9500 -92.9083 257° West 342 394 10,500 -738 Descending Minneapolis Center
08:39AM 44.9319 -93.0172 257° West 292 336 9,500 -836 Descending Minneapolis Center
08:40AM 44.9444 -93.1042 282° West 235 270 8,800 -934 Descending Minneapolis Center
08:41AM 44.9833 -93.1861 304° West 216 249 7,600 -1,279 Descending Minneapolis Center
08:42AM 45.0153 -93.2547 303° West 215 247 6,200 -1,279 Descending Minneapolis Center
08:43AM 45.0464 -93.3253 302° West 215 247 5,000 -1,033 Descending Minneapolis Center
08:44AM 45.0375 -93.4056 261° West 227 261 4,100 -541 Descending Minneapolis Center
08:45AM 44.9886 -93.3869 165° South 189 217 3,900 -443 Descending Minneapolis Center
08:46AM 44.9514 -93.3550 149° Southeast 153 176 3,200 -683 Descending Minneapolis Center
08:47AM 44.9325 -93.3117 122° Southeast 130 150 2,500 -732 Descending Minneapolis Center
08:48AM 44.9144 -93.2694 121° Southeast 129 148 1,700 -787 Descending Minneapolis Center
08:50AM 44.8820 -93.2218 128° Southeast  Level Estimated
08:57AM 44.8820 -93.2218 128° Southeast  Level Estimated